Latest Weather Observations for Walgett

IDN60801

Issued at 11:02 am EST Friday 4 September 2015 (issued every 30 minutes, with the page automatically refreshed every 10 minutes)

About weather observations | Map of weather stations | Latest weather observations for NSW | Other Formats
Station Details ID: 052088 Name: WALGETT AIRPORT AWS Lat: -30.04 Lon: 148.12 Height: 133.0 m
Data from the previous 72 hours. | See also: Recent months at Walgett
Date/Time
EST
Temp
°C
App
Temp
°C
Dew
Point
Rel
Hum
%
Delta-T
°C
Wind Press
QNH
hPa
Press
MSL
hPa
Rain
since 9 am
mm
Dir
 
Spd
km/h
Gust
km/h
Spd
kts
Gust
kts
04/11:00am 16.2 14.4 9.4 64 3.5 SSE 9 15 5 8 1022.5 1022.3 0.0
04/10:30am 14.4 11.7 9.0 70 2.8 SSE 13 17 7 9 1022.7 1022.5 0.0
04/10:00am 12.4 9.8 7.9 74 2.2 SE 11 17 6 9 1022.8 1022.6 0.0
04/09:30am 12.5 9.2 8.2 75 2.1 SSE 15 20 8 11 1022.9 1022.7 0.0
04/09:00am 12.3 8.7 8.2 76 2.0 S 17 22 9 12 1022.6 1022.4 0.2
04/08:30am 11.4 7.4 8.1 80 1.6 S 19 20 10 11 1022.8 1022.6 0.2
04/08:00am 10.5 7.2 7.9 84 1.3 SSW 15 26 8 14 1022.5 1022.3 0.2
04/07:30am 9.0 6.3 7.5 90 0.7 SW 11 15 6 8 1022.2 1022.0 0.2
04/07:00am 7.0 4.1 6.4 96 0.3 WSW 11 13 6 7 1021.8 1021.6 0.2
04/06:30am 5.7 2.9 5.0 95 0.3 SW 9 11 5 6 1021.1 1020.9 0.2
04/06:00am 5.8 2.9 4.8 93 0.4 SW 9 11 5 6 1020.8 1020.6 0.2
04/05:30am 6.6 3.8 5.2 91 0.6 SW 9 11 5 6 1020.6 1020.4 0.2
04/05:00am 7.4 4.4 5.9 90 0.7 SSW 11 15 6 8 1020.4 1020.2 0.2
04/04:30am 7.9 4.9 6.0 88 0.9 SW 11 15 6 8 1020.1 1019.9 0.2
04/04:00am 8.6 5.3 6.6 87 0.9 SW 13 20 7 11 1019.9 1019.7 0.2
04/03:30am 8.4 5.1 6.4 87 0.9 WSW 13 19 7 10 1019.7 1019.5 0.2
04/03:00am 8.5 5.5 6.0 84 1.1 WSW 11 15 6 8 1019.7 1019.5 0.2
04/02:30am 9.3 6.0 6.2 81 1.4 SW 13 17 7 9 1019.6 1019.4 0.2
04/02:00am 9.3 5.9 6.0 80 1.5 WSW 13 17 7 9 1019.7 1019.5 0.2
04/01:30am 10.3 6.6 6.5 77 1.8 SW 15 20 8 11 1019.8 1019.6 0.2
04/01:00am 10.8 7.5 6.4 74 2.1 SW 13 19 7 10 1020.0 1019.8 0.2
04/12:30am 11.2 8.3 6.5 73 2.2 WSW 11 15 6 8 1020.0 1019.8 0.2
04/12:00am 10.9 7.5 6.1 72 2.2 SW 13 17 7 9 1019.9 1019.7 0.2
 
Date/Time
EST
Temp
°C
App
Temp
°C
Dew
Point
Rel
Hum
%
Delta-T
°C
Wind Press
QNH
hPa
Press
MSL
hPa
Rain
since 9 am
mm
Dir
 
Spd
km/h
Gust
km/h
Spd
kts
Gust
kts
03/11:30pm 11.7 8.0 6.2 69 2.6 SW 15 19 8 10 1020.1 1019.9 0.2
03/11:00pm 13.0 8.9 6.4 64 3.2 SSW 17 26 9 14 1020.1 1019.9 0.2
03/10:30pm 13.4 8.4 6.3 62 3.4 SW 22 32 12 17 1019.6 1019.4 0.2
03/10:00pm 13.7 7.8 5.8 59 3.8 SSW 26 37 14 20 1019.3 1019.1 0.2
03/09:30pm 14.2 10.6 6.6 60 3.7 SW 15 19 8 10 1018.8 1018.6 0.2
03/09:00pm 13.8 10.5 6.2 60 3.6 SW 13 17 7 9 1018.4 1018.2 0.2
03/08:30pm 15.2 11.2 6.5 56 4.3 SW 17 22 9 12 1018.0 1017.8 0.2
03/08:00pm 15.4 11.3 6.4 55 4.4 SW 17 24 9 13 1017.6 1017.4 0.2
03/07:30pm 16.2 12.1 6.3 52 4.9 WSW 17 24 9 13 1017.1 1017.0 0.2
03/07:00pm 15.7 12.4 6.2 53 4.6 WSW 13 20 7 11 1016.6 1016.4 0.2
03/06:30pm 15.6 12.2 5.8 52 4.7 WSW 13 17 7 9 1015.9 1015.7 0.2
03/06:00pm 16.4 11.6 5.4 48 5.3 WSW 20 32 11 17 1015.2 1015.0 0.2
03/05:30pm 16.7 12.0 5.9 49 5.3 WSW 20 33 11 18 1014.5 1014.3 0.2
03/05:00pm 17.2 11.7 6.1 48 5.5 WSW 24 35 13 19 1014.0 1013.8 0.2
03/04:30pm 17.3 11.0 5.6 46 5.7 WSW 28 41 15 22 1013.8 1013.6 0.2
03/04:00pm 17.2 10.9 5.8 47 5.6 WSW 28 41 15 22 1013.3 1013.1 0.2
03/03:37pm 18.3 12.2 6.5 46 5.9 WSW 28 46 15 25 1013.0 1012.8 0.2
03/03:30pm 18.5 12.1 7.0 47 5.8 W 30 43 16 23 1012.9 1012.7 0.2
03/03:00pm 17.4 9.8 6.0 47 5.6 W 35 48 19 26 1012.6 1012.4 0.2
03/02:35pm 18.4 11.9 6.6 46 5.9 WSW 30 48 16 26 1012.3 1012.1 0.2
03/02:30pm 17.5 10.5 5.8 46 5.7 W 32 44 17 24 1012.2 1012.0 0.2
03/02:00pm 18.2 10.3 6.4 46 5.9 W 37 50 20 27 1012.0 1011.8 0.2
03/01:43pm 18.2 10.7 6.4 46 5.9 W 35 54 19 29 1012.0 1011.8 0.2
03/01:30pm 18.4 10.5 6.3 45 6.0 W 37 50 20 27 1012.3 1012.1 0.2
03/01:00pm 17.5 10.0 6.4 48 5.5 W 35 57 19 31 1012.3 1012.1 0.2
03/12:53pm 17.5 10.4 6.4 48 5.5 W 33 52 18 28 1012.3 1012.1 0.2
03/12:30pm 17.9 11.2 7.3 50 5.4 W 32 43 17 23 1012.3 1012.1 0.2
03/12:00pm 15.6 9.6 6.9 56 4.3 WSW 28 44 15 24 1012.5 1012.3 0.2
03/11:30am 16.6 8.9 5.3 47 5.4 W 35 46 19 25 1012.4 1012.2 0.2
03/11:00am 16.3 9.7 6.2 51 4.9 W 30 46 16 25 1012.3 1012.1 0.2
03/10:30am 16.9 10.0 7.3 53 4.8 W 33 46 18 25 1012.3 1012.1 0.2
03/10:00am 15.6 10.6 6.6 55 4.4 WNW 22 43 12 23 1012.2 1012.0 0.2
03/09:30am 12.7 9.2 7.0 68 2.8 NNW 15 20 8 11 1012.1 1011.9 0.2
03/09:00am 12.3 9.1 6.8 69 2.7 NNW 13 17 7 9 1011.9 1011.7 0.6
03/08:30am 11.0 6.4 5.5 69 2.5 NW 19 28 10 15 1011.7 1011.5 0.6
03/08:00am 11.7 6.3 4.4 61 3.3 NW 22 30 12 16 1011.0 1010.8 0.4
03/07:30am 10.9 6.4 4.4 64 2.9 NNW 17 22 9 12 1010.8 1010.6 0.4
03/07:00am 10.4 6.0 5.0 69 2.5 NW 17 20 9 11 1010.5 1010.2 0.4
03/06:30am 10.1 5.4 5.3 72 2.2 NW 19 28 10 15 1010.1 1009.8 0.4
03/06:00am 10.2 6.0 5.8 74 2.0 NW 17 22 9 12 1009.7 1009.4 0.4
03/05:30am 9.9 6.5 5.7 75 1.9 NNW 13 19 7 10 1009.2 1009.0 0.4
03/05:00am 9.6 6.1 5.6 76 1.8 NW 13 15 7 8 1009.2 1009.0 0.4
03/04:30am 9.9 6.9 6.1 77 1.8 NNW 11 15 6 8 1009.1 1008.9 0.4
03/04:00am 10.0 7.1 6.3 78 1.7 NW 11 13 6 7 1009.2 1009.0 0.4
03/03:30am 9.8 6.9 6.7 81 1.5 NW 11 13 6 7 1009.3 1009.1 0.4
03/03:00am 9.9 7.3 6.1 77 1.8 WNW 9 11 5 6 1009.5 1009.2 0.4
03/02:30am 11.2 8.2 5.9 70 2.5 W 11 13 6 7 1009.7 1009.4 0.4
03/02:00am 12.0 9.7 7.5 74 2.2 W 9 11 5 6 1009.9 1009.6 0.4
03/01:30am 13.9 10.8 8.7 71 2.6 W 15 19 8 10 1010.0 1009.7 0.4
03/01:00am 15.7 11.9 9.8 68 3.1 W 20 28 11 15 1009.9 1009.6 0.4
03/12:30am 15.2 12.7 11.2 77 2.2 NW 15 19 8 10 1009.8 1009.5 0.4
03/12:00am 16.3 13.5 11.5 73 2.6 NNW 17 24 9 13 1009.3 1009.1 0.4
 
Date/Time
EST
Temp
°C
App
Temp
°C
Dew
Point
Rel
Hum
%
Delta-T
°C
Wind Press
QNH
hPa
Press
MSL
hPa
Rain
since 9 am
mm
Dir
 
Spd
km/h
Gust
km/h
Spd
kts
Gust
kts
02/11:30pm 16.7 13.9 11.4 71 2.9 NW 17 22 9 12 1009.0 1008.8 0.4
02/11:00pm 17.1 14.3 11.4 69 3.1 NW 17 22 9 12 1009.6 1009.3 0.4
02/10:30pm 17.8 13.7 11.4 66 3.5 NNW 24 33 13 18 1009.1 1008.9 0.4
02/10:00pm 17.3 13.2 11.3 68 3.3 N 24 37 13 20 1008.9 1008.7 0.4
02/09:30pm 18.8 14.3 10.1 57 4.7 NNW 24 35 13 19 1009.6 1009.3 0.2
02/09:00pm 18.4 14.7 10.3 59 4.4 NNW 20 30 11 16 1009.1 1008.9 0.2
02/08:30pm 20.3 15.4 8.6 47 6.2 NNW 24 39 13 21 1008.6 1008.4 0.0
02/08:00pm 20.1 14.5 7.1 43 6.7 NNE 26 33 14 18 1007.4 1007.2 0.0
02/07:30pm 19.9 14.9 6.3 41 6.8 NNE 22 30 12 16 1007.3 1007.1 0.0
02/07:00pm 20.2 13.9 5.8 39 7.2 NNE 28 39 15 21 1007.7 1007.5 0.0
02/06:30pm 20.6 14.2 5.0 36 7.7 NNE 28 41 15 22 1008.0 1007.8 0.0
02/06:00pm 20.9 15.2 4.9 35 7.9 NNE 24 33 13 18 1008.3 1008.1 0.0
02/05:30pm 20.8 15.5 4.8 35 7.9 NE 22 28 12 15 1008.2 1008.0 0.0
02/05:00pm 21.8 16.8 4.8 33 8.4 NNE 20 30 11 16 1009.0 1008.8 0.0
02/04:30pm 21.9 16.5 4.5 32 8.6 NE 22 26 12 14 1008.8 1008.6 0.0
02/04:00pm 22.7 17.6 4.2 30 9.1 NNE 20 26 11 14 1009.7 1009.4 0.0
02/03:30pm 23.1 17.5 3.6 28 9.5 N 22 30 12 16 1010.2 1009.9 0.0
02/03:00pm 24.0 18.3 4.9 29 9.6 N 24 32 13 17 1010.4 1010.1 0.0
02/02:30pm 24.6 20.3 5.4 29 9.8 NNE 17 32 9 17 1010.6 1010.3 0.0
02/02:00pm 23.0 18.0 3.5 28 9.5 N 19 24 10 13 1011.1 1010.9 0.0
02/01:30pm 21.9 16.9 3.6 30 8.9 NNE 19 24 10 13 1011.5 1011.3 0.0
02/01:00pm 22.2 16.6 3.3 29 9.1 NNE 22 32 12 17 1012.0 1011.8 0.0
02/12:30pm 22.2 16.2 3.3 29 9.1 NNE 24 33 13 18 1013.3 1013.1 0.0
02/12:00pm 22.2 16.1 4.7 32 8.7 NE 26 35 14 19 1013.8 1013.6 0.0
02/11:30am 21.5 15.4 4.6 33 8.3 NNE 26 37 14 20 1014.4 1014.2 0.0
02/11:00am 22.0 16.9 5.8 35 8.2 NNE 22 30 12 16 1015.0 1014.8 0.0
02/10:30am 20.5 14.9 5.3 37 7.5 NNE 24 32 13 17 1015.4 1015.2 0.0
02/10:00am 19.4 15.2 5.5 40 6.9 NE 17 26 9 14 1016.0 1015.8 0.0
02/09:30am 17.6 12.4 5.5 45 5.9 NE 22 32 12 17 1016.3 1016.1 0.0
02/09:00am 16.1 11.4 6.0 51 4.9 NE 20 26 11 14 1016.4 1016.2 0.0
02/08:30am 14.2 9.5 5.3 55 4.2 NE 19 24 10 13 1016.3 1016.1 0.0
02/08:00am 12.2 7.4 4.7 60 3.4 NE 19 24 10 13 1016.5 1016.3 0.0
02/07:30am 11.7 6.9 4.4 61 3.3 NE 19 26 10 14 1016.5 1016.3 0.0
02/07:00am 11.0 6.5 4.0 62 3.1 NE 17 20 9 11 1016.4 1016.2 0.0
02/06:30am 10.5 6.7 4.0 64 2.9 NE 13 17 7 9 1016.6 1016.4 0.0
02/06:00am 10.4 6.6 3.9 64 2.9 NE 13 17 7 9 1016.4 1016.2 0.0
02/05:30am 10.2 6.3 3.5 63 2.9 NE 13 19 7 10 1016.3 1016.1 0.0
02/05:00am 10.9 7.1 3.9 62 3.1 NE 13 17 7 9 1016.2 1016.0 0.0
02/04:30am 10.5 6.7 4.0 64 2.9 NE 13 17 7 9 1015.8 1015.6 0.0
02/04:00am 10.3 6.5 4.0 65 2.8 NE 13 15 7 8 1015.7 1015.5 0.0
02/03:30am 10.5 7.1 3.8 63 3.0 ENE 11 17 6 9 1015.7 1015.5 0.0
02/03:00am 10.3 6.4 3.6 63 3.0 ENE 13 17 7 9 1016.2 1016.0 0.0
02/02:30am 10.3 6.4 3.3 62 3.1 NE 13 17 7 9 1016.7 1016.5 0.0
02/02:00am 9.3 6.2 3.7 68 2.5 E 9 11 5 6 1016.6 1016.4 0.0
02/01:30am 9.0 6.3 3.8 70 2.3 E 7 9 4 5 1016.9 1016.7 0.0
02/01:00am 7.9 4.8 3.6 74 1.9 ENE 9 11 5 6 1016.7 1016.5 0.0
02/12:30am 7.3 4.6 3.7 78 1.5 E 7 9 4 5 1016.7 1016.5 0.0
02/12:00am 7.3 4.6 3.5 77 1.6 E 7 7 4 4 1016.8 1016.6 0.0
 
Date/Time
EST
Temp
°C
App
Temp
°C
Dew
Point
Rel
Hum
%
Delta-T
°C
Wind Press
QNH
hPa
Press
MSL
hPa
Rain
since 9 am
mm
Dir
 
Spd
km/h
Gust
km/h
Spd
kts
Gust
kts
01/11:30pm 7.2 4.4 3.4 77 1.6 ENE 7 9 4 5 1016.7 1016.5 0.0
01/11:00pm 5.8 2.4 1.7 75 1.7 E 9 11 5 6 1016.8 1016.6 0.0
01/10:30pm 6.4 3.5 2.7 77 1.5 ENE 7 9 4 5 1017.0 1016.8 0.0
01/10:00pm 7.0 3.7 2.3 72 1.9 NE 9 11 5 6 1017.0 1016.8 0.0
01/09:30pm 8.5 5.7 1.9 63 2.8 E 6 7 3 4 1016.7 1016.5 0.0
01/09:00pm 10.9 7.6 2.7 57 3.6 E 9 11 5 6 1016.6 1016.4 0.0
01/08:30pm 7.4 4.1 2.3 70 2.1 E 9 11 5 6 1016.5 1016.3 0.0
01/08:00pm 8.4 5.1 2.6 67 2.5 ESE 9 9 5 5 1016.5 1016.3 0.0
01/07:30pm 9.6 8.2 3.4 65 2.7 CALM 0 0 0 0 1016.2 1016.0 0.0
01/07:00pm 10.4 8.8 2.7 59 3.3 CALM 0 0 0 0 1016.0 1015.8 0.0
01/06:30pm 12.1 10.5 2.3 51 4.3 CALM 0 0 0 0 1015.7 1015.5 0.0
01/06:00pm 14.9 13.3 2.4 43 5.6 CALM 0 0 0 0 1015.6 1015.4 0.0
01/05:30pm 18.4 15.7 2.7 35 7.3 W 6 9 3 5 1015.5 1015.3 0.0
01/05:00pm 19.4 16.5 2.7 33 7.8 WNW 7 11 4 6 1015.5 1015.3 0.0
01/04:30pm 19.5 16.5 1.9 31 8.1 WNW 7 11 4 6 1015.4 1015.2 0.0
01/04:00pm 19.7 16.3 2.1 31 8.1 W 9 15 5 8 1015.4 1015.2 0.0
01/03:30pm 19.6 16.6 2.0 31 8.1 WSW 7 13 4 7 1015.5 1015.3 0.0
01/03:00pm 19.6 16.7 2.5 32 8.0 WSW 7 13 4 7 1015.7 1015.5 0.0
01/02:30pm 19.2 15.5 2.1 32 7.9 W 11 17 6 9 1015.9 1015.7 0.0
01/02:00pm 19.0 15.8 2.8 34 7.5 NW 9 17 5 9 1016.4 1016.2 0.0
01/01:30pm 18.5 15.6 2.4 34 7.4 NW 7 15 4 8 1016.6 1016.4 0.0
01/01:00pm 18.6 14.7 3.6 37 7.1 WSW 13 19 7 10 1017.3 1017.1 0.0
01/12:30pm 18.2 14.3 3.3 37 7.0 W 13 20 7 11 1018.0 1017.8 0.0
01/12:00pm 17.3 14.3 4.3 42 6.2 SSW 9 15 5 8 1018.5 1018.3 0.0
01/11:30am 16.8 13.0 3.8 42 6.1 WSW 13 20 7 11 1019.1 1018.9 0.0

Other Formats:

Comma delimited format used in spreadsheet applications
http://www.bom.gov.au/fwo/IDN60801/IDN60801.95715.axf

JavaScript Object Notation format (JSON) in row-major order
http://www.bom.gov.au/fwo/IDN60801/IDN60801.95715.json